Strona główna
METAR-TAF:

METAR-TAF

Lotnisko :

Newport State Airport

Newport, Rhode Island, Stany Zjednoczone

Szerokość geograficzna: 41-31-48N, Długość geograficzna: 071-17-01W, wysokość: 52 m

Aktualna obserwacja pogody

Raport powstał 10 minut temu, godzina 22:31 UTC
Wiatr 12 kt od północny wschód w porywach dochodzący do 19 kt
Temperatura 4°C
Wilgotność 100%
Ciśnienie 1010 hPa
Widzialność: 4.0 km
Rozproszone chmury na wysokości 900 ft
Zachmurzenie całkowite na wysokości 1600 ft
słaby deszcz, zamglenie

METAR: KUUU 162231Z AUTO 04012G19KT 2 1/2SM -RA BR SCT009 OVC016 04/04 A2983 RMK AO2 P0005 T00440039

czas: 17:41 (22:41 UTC)


TAF: brakujący

Obserwacja i prognoza pogody dla ponad 4000 lotnisk (raport METAR i TAF).

Dostępne stacje oznaczono żółtymi i czerwonymi punktami na mapie.

Najedź kursorem aby zobaczyć nazwę stacji.

Kliknij aby zobaczyć obserwacje i prognozy pogody.

Aby zmienić mapę: kliknij na zielony przycisk z czarnym krzyżykiem, aby powiększyć; na zielony przycisk z myślnikiem, aby pomniejszyć; na zielone strzałki, aby przejść do map sąsiednich.


METAR-TAF: